ESFSR EETN-EETN
Flight info
| Callsign | ESFSR |
|---|---|
| Flight time | 0h 15m |
| Altitude | 1200 |
| Route | LOCAL |
| Aircraft | SR22/L-SDGRY/S |
Departure
| Time | 2026-05-07 13:03 |
|---|---|
| Airport | Lennart Meri Tallinn Airport (EETN) |
Arrival
| Time | 2026-05-07 13:19 |
|---|---|
| Airport | Lennart Meri Tallinn Airport (EETN) |
| Time | Latitude | Longitude | Altitude | Speed | Heading |
|---|---|---|---|---|---|
| 2026-05-07 12:50 | 59.41676 | 24.81493 | 157 ft | 0 kts | 192° |
| 2026-05-07 12:58 | 59.41675 | 24.81492 | 157 ft | 1 kts | 201° |
| 2026-05-07 12:59 | 59.41697 | 24.81436 | 157 ft | 12 kts | 325° |
| 2026-05-07 12:59 | 59.41750 | 24.81349 | 157 ft | 8 kts | 270° |
| 2026-05-07 12:59 | 59.41747 | 24.81209 | 157 ft | 10 kts | 240° |
| 2026-05-07 12:59 | 59.41675 | 24.81182 | 157 ft | 15 kts | 180° |
| 2026-05-07 13:00 | 59.41564 | 24.81180 | 157 ft | 16 kts | 179° |
| 2026-05-07 13:00 | 59.41484 | 24.81180 | 157 ft | 9 kts | 181° |
| 2026-05-07 13:00 | 59.41449 | 24.81180 | 157 ft | 3 kts | 178° |
| 2026-05-07 13:00 | 59.41447 | 24.81180 | 157 ft | 0 kts | 179° |
| 2026-05-07 13:02 | 59.41444 | 24.81180 | 157 ft | 3 kts | 179° |
| 2026-05-07 13:02 | 59.41381 | 24.81180 | 156 ft | 13 kts | 174° |
| 2026-05-07 13:02 | 59.41334 | 24.81194 | 156 ft | 1 kts | 146° |
| 2026-05-07 13:02 | 59.41331 | 24.81239 | 157 ft | 9 kts | 89° |
| 2026-05-07 13:03 | 59.41327 | 24.81930 | 202 ft | 80 kts | 84° |
| 2026-05-07 13:03 | 59.41338 | 24.83114 | 533 ft | 96 kts | 83° |
| 2026-05-07 13:03 | 59.41317 | 24.84556 | 881 ft | 111 kts | 84° |
| 2026-05-07 13:03 | 59.41302 | 24.86068 | 1083 ft | 111 kts | 86° |
| 2026-05-07 13:04 | 59.41186 | 24.87541 | 1126 ft | 112 kts | 116° |
| 2026-05-07 13:04 | 59.40500 | 24.88306 | 1049 ft | 121 kts | 174° |
| 2026-05-07 13:04 | 59.39660 | 24.88250 | 1003 ft | 120 kts | 183° |
| 2026-05-07 13:04 | 59.39020 | 24.87426 | 1023 ft | 114 kts | 252° |
| 2026-05-07 13:05 | 59.38932 | 24.85880 | 977 ft | 117 kts | 271° |
| 2026-05-07 13:05 | 59.38903 | 24.84290 | 989 ft | 117 kts | 270° |
| 2026-05-07 13:05 | 59.38872 | 24.82709 | 1043 ft | 115 kts | 272° |
| 2026-05-07 13:05 | 59.38847 | 24.81115 | 1054 ft | 120 kts | 270° |
| 2026-05-07 13:06 | 59.38781 | 24.79471 | 1078 ft | 120 kts | 269° |
| 2026-05-07 13:06 | 59.39029 | 24.78107 | 965 ft | 104 kts | 331° |
| 2026-05-07 13:06 | 59.39705 | 24.77887 | 792 ft | 99 kts | 1° |
| 2026-05-07 13:06 | 59.40393 | 24.77902 | 616 ft | 99 kts | 2° |
| 2026-05-07 13:07 | 59.40965 | 24.78394 | 485 ft | 90 kts | 44° |
| 2026-05-07 13:07 | 59.41263 | 24.79399 | 372 ft | 78 kts | 68° |
| 2026-05-07 13:07 | 59.41334 | 24.80388 | 251 ft | 73 kts | 78° |
| 2026-05-07 13:07 | 59.41331 | 24.81403 | 169 ft | 73 kts | 82° |
| 2026-05-07 13:08 | 59.41332 | 24.82276 | 157 ft | 56 kts | 92° |
| 2026-05-07 13:08 | 59.41318 | 24.83207 | 240 ft | 85 kts | 84° |
| 2026-05-07 13:08 | 59.41330 | 24.84474 | 629 ft | 97 kts | 86° |
| 2026-05-07 13:08 | 59.41296 | 24.85847 | 947 ft | 106 kts | 87° |
| 2026-05-07 13:09 | 59.41282 | 24.87355 | 1021 ft | 111 kts | 86° |
| 2026-05-07 13:09 | 59.41375 | 24.88847 | 1062 ft | 110 kts | 55° |
| 2026-05-07 13:09 | 59.42048 | 24.89420 | 1060 ft | 114 kts | 1° |
| 2026-05-07 13:09 | 59.42840 | 24.89333 | 1161 ft | 116 kts | 344° |
| 2026-05-07 13:10 | 59.43315 | 24.88005 | 1118 ft | 132 kts | 277° |
| 2026-05-07 13:10 | 59.43283 | 24.86256 | 1103 ft | 124 kts | 270° |
| 2026-05-07 13:10 | 59.43221 | 24.84581 | 1061 ft | 122 kts | 268° |
| 2026-05-07 13:10 | 59.43175 | 24.82928 | 991 ft | 120 kts | 272° |
| 2026-05-07 13:11 | 59.43119 | 24.81292 | 952 ft | 120 kts | 270° |
| 2026-05-07 13:11 | 59.43053 | 24.79650 | 868 ft | 119 kts | 265° |
| 2026-05-07 13:11 | 59.42501 | 24.78526 | 733 ft | 123 kts | 189° |
| 2026-05-07 13:11 | 59.41691 | 24.78651 | 583 ft | 111 kts | 157° |
| 2026-05-07 13:12 | 59.41343 | 24.79758 | 376 ft | 97 kts | 88° |
| 2026-05-07 13:12 | 59.41333 | 24.80979 | 219 ft | 80 kts | 82° |
| 2026-05-07 13:12 | 59.41329 | 24.81979 | 159 ft | 65 kts | 81° |
| 2026-05-07 13:12 | 59.41328 | 24.82786 | 156 ft | 69 kts | 90° |
| 2026-05-07 13:13 | 59.41314 | 24.83956 | 397 ft | 95 kts | 85° |
| 2026-05-07 13:13 | 59.41317 | 24.85340 | 818 ft | 106 kts | 84° |
| 2026-05-07 13:13 | 59.41310 | 24.86772 | 1074 ft | 106 kts | 88° |
| 2026-05-07 13:13 | 59.41276 | 24.88230 | 1110 ft | 106 kts | 90° |
| 2026-05-07 13:14 | 59.40823 | 24.89392 | 1215 ft | 123 kts | 155° |
| 2026-05-07 13:14 | 59.39955 | 24.89451 | 1153 ft | 128 kts | 180° |
| 2026-05-07 13:14 | 59.39106 | 24.89309 | 1047 ft | 120 kts | 196° |
| 2026-05-07 13:14 | 59.38706 | 24.88068 | 992 ft | 115 kts | 271° |
| 2026-05-07 13:15 | 59.38652 | 24.86480 | 962 ft | 117 kts | 272° |
| 2026-05-07 13:15 | 59.38587 | 24.84898 | 984 ft | 116 kts | 270° |
| 2026-05-07 13:15 | 59.38518 | 24.83309 | 1017 ft | 118 kts | 271° |
| 2026-05-07 13:15 | 59.38465 | 24.81692 | 1031 ft | 121 kts | 272° |
| 2026-05-07 13:16 | 59.38400 | 24.80034 | 1071 ft | 122 kts | 271° |
| 2026-05-07 13:16 | 59.38603 | 24.78621 | 959 ft | 103 kts | 330° |
| 2026-05-07 13:16 | 59.39279 | 24.78366 | 754 ft | 101 kts | 360° |
| 2026-05-07 13:16 | 59.39956 | 24.78322 | 639 ft | 95 kts | 360° |
| 2026-05-07 13:17 | 59.40575 | 24.78316 | 481 ft | 85 kts | 4° |
| 2026-05-07 13:17 | 59.41059 | 24.78676 | 430 ft | 76 kts | 41° |
| 2026-05-07 13:17 | 59.41302 | 24.79572 | 334 ft | 76 kts | 75° |
| 2026-05-07 13:17 | 59.41333 | 24.80596 | 239 ft | 75 kts | 82° |
| 2026-05-07 13:18 | 59.41330 | 24.81614 | 183 ft | 73 kts | 82° |
| 2026-05-07 13:18 | 59.41328 | 24.82586 | 163 ft | 69 kts | 81° |
| 2026-05-07 13:18 | 59.41328 | 24.83488 | 159 ft | 58 kts | 90° |
| 2026-05-07 13:18 | 59.41324 | 24.84215 | 156 ft | 51 kts | 91° |
| 2026-05-07 13:19 | 59.41321 | 24.84774 | 157 ft | 23 kts | 90° |
| 2026-05-07 13:19 | 59.41356 | 24.84997 | 157 ft | 18 kts | 21° |
| 2026-05-07 13:19 | 59.41476 | 24.84988 | 157 ft | 17 kts | 317° |
| 2026-05-07 13:19 | 59.41496 | 24.84728 | 157 ft | 23 kts | 270° |
| 2026-05-07 13:20 | 59.41497 | 24.84378 | 157 ft | 27 kts | 270° |
| 2026-05-07 13:20 | 59.41498 | 24.83993 | 157 ft | 30 kts | 270° |
| 2026-05-07 13:20 | 59.41499 | 24.83567 | 157 ft | 32 kts | 270° |
| 2026-05-07 13:20 | 59.41500 | 24.83141 | 157 ft | 24 kts | 271° |
| 2026-05-07 13:21 | 59.41501 | 24.82790 | 157 ft | 28 kts | 269° |
| 2026-05-07 13:21 | 59.41502 | 24.82394 | 157 ft | 30 kts | 270° |
| 2026-05-07 13:21 | 59.41503 | 24.81962 | 157 ft | 32 kts | 270° |
| 2026-05-07 13:21 | 59.41504 | 24.81561 | 157 ft | 30 kts | 270° |
| 2026-05-07 13:22 | 59.41505 | 24.81243 | 157 ft | 12 kts | 279° |
| 2026-05-07 13:22 | 59.41583 | 24.81181 | 157 ft | 14 kts | 0° |
| 2026-05-07 13:22 | 59.41692 | 24.81182 | 157 ft | 17 kts | 0° |
| 2026-05-07 13:22 | 59.41751 | 24.81245 | 157 ft | 12 kts | 91° |
| 2026-05-07 13:23 | 59.41736 | 24.81402 | 157 ft | 13 kts | 152° |
| 2026-05-07 13:23 | 59.41685 | 24.81474 | 157 ft | 7 kts | 127° |
| 2026-05-07 13:23 | 59.41677 | 24.81486 | 157 ft | 0 kts | 161° |